AirNav   Pilot Hours Calculator
 
 1049 users online  

3J6 Davis Field Airport
Folkston, Georgia, USA

GOING TO FOLKSTON?


FAA INFORMATION EFFECTIVE 11 AUGUST 2022

Location

FAA Identifier: 3J6
Lat/Long: 30-47-46.9000N 082-01-41.4000W
30-47.781667N 082-01.690000W
30.7963611,-82.0281667
(estimated)
Elevation: 68 ft. / 21 m (estimated)
Variation: 03W (1985)
From city: 3 miles SW of FOLKSTON, GA
Time zone: UTC -4 (UTC -5 during Standard Time)
Zip code: 31537

Airport Operations

Airport use: Open to the public
Activation date: 11/1962
Control tower: no
ARTCC: JACKSONVILLE CENTER
FSS: MACON FLIGHT SERVICE STATION
NOTAMs facility: MCN (NOTAM-D service available)
Attendance: UNATNDD
Wind indicator: lighted
Segmented circle: yes
Lights: MIRL RWY 01/19 PRESET LOW INTST DUSK-2030; AFT 2030 ACTVT - CTAF.
Beacon: white-green (lighted land airport)
Operates sunset to sunrise.

Airport Communications

CTAF: 122.9

Nearby radio navigation aids

VOR radial/distance  VOR name  Freq  Var
TAYr060/32.2TAYLOR VORTAC112.9003W
SSIr247/33.6BRUNSWICK VORTAC109.8004W
CRGr319/38.3CRAIG VORTAC114.5003W
AYSr136/39.3WAYCROSS VORTAC110.2000E

Airport Services

Parking: tiedowns
Airframe service: NONE
Powerplant service: NONE
Bottled oxygen: NONE
Bulk oxygen: NONE

Runway Information

Runway 1/19

Dimensions: 2500 x 50 ft. / 762 x 15 m
Surface: asphalt, in good condition
Weight bearing capacity: 
Single wheel: 12.5
Runway edge lights: medium intensity
RUNWAY 1  RUNWAY 19
Latitude: 30-47.575833N30-47.988333N
Longitude: 082-01.694833W082-01.685000W
Traffic pattern: rightleft
Markings: basic, in good conditionbasic, in good condition
Obstructions: 42 ft. trees, 201 ft. from runway, 123 ft. left of centerline24 ft. trees, 584 ft. from runway, 116 ft. left of centerline, 16:1 slope to clear

Airport Ownership and Management from official FAA records

Ownership: Publicly-owned
Owner: CHARLTON COUNTY
68 KINGSLAND DR. STE B
FOLKSTON, GA 31537
Phone 912-496-2549
Manager: HAMPTON RAULERSON
68 KINSLAND DR., STE B
FOLKSTON, GA 31537
Phone (912) 886-3260

Airport Operational Statistics

Aircraft based on the field: 8
Single engine airplanes: 8
    
Aircraft operations: avg 61/week *
62% local general aviation
31% transient general aviation
6% military
* for 12-month period ending 31 December 2021

Additional Remarks

LGTD 272 FT AGL TOWER 1000 FT WEST.
FOR CD CTC JACKSONVILLE APCH AT 904-741-0284.

Instrument Procedures

There are no published instrument procedures at 3J6.

Some nearby airports with instrument procedures:

KJAX - Jacksonville International Airport (25 nm SE)
4J1 - Brantley County Airport (25 nm N)
KFHB - Fernandina Beach Municipal Airport (31 nm E)
KAYS - Waycross-Ware County Airport (33 nm NW)
KHEG - Herlong Recreational Airport (33 nm S)
 
Loc | Ops | Rwys | IFR | FBO | Links
Com | Nav | Svcs | Stats | Notes
Area around 3J6 (Davis Field Airport)
 
Road maps at: MapQuest Bing Google
 
Aerial photo
WARNING: Photo may not be current or correct
Aerial photo of 3J6 (Davis Field Airport)
Do you have a better or more recent aerial photo of Davis Field Airport that you would like to share? If so, please send us your photo.

 
Sectional chart

 
Airport distance calculator
Flying to Davis Field Airport? Find the distance to fly.

From to 3J6

Sunrise and sunset
Times for 13-Aug-2022
 Local
(UTC-4)
 Zulu
(UTC)
Morning civil twilight06:2910:29
Sunrise06:5410:54
Sunset20:1200:12
Evening civil twilight20:3700:37

Current date and time
Zulu (UTC)  13-Aug-2022 22:21:10
Local (UTC-4)  13-Aug-2022 18:21:10
 
METAR
KJAX 
25nm SE 
132156Z 00000KT 10SM FEW005 BKN026 25/24 A2999 RMK AO2 LTG DSNT W SLP155 T02500239
KFHB 
31nm E 
132155Z AUTO 07012KT 10SM SCT033 SCT100 28/23 A3001 RMK AO2 LTG DSNT S
KHEG 
33nm S 
132155Z AUTO 05006KT 10SM FEW050 SCT070 SCT090 28/24 A3001 RMK AO2 LTG DSNT SE-W
KAYS 
33nm NW 
132155Z AUTO 07007KT 10SM CLR 31/21 A2999 RMK AO2 T03050207
KVQQ 
36nm S 
132150Z VRB04KT 10SM BKN030 26/26 A3001
KCRG 
38nm SE 
132153Z 09003KT 10SM FEW075 OVC100 27/24 A3000 RMK AO2 LTG DSNT S AND SW RAB2059E26 SLP157 P0001 T02670244
KSSI 
39nm NE 
132153Z AUTO 04013KT 10SM CLR 29/22 A3000 RMK AO2 SLP160 T02890217
KNIP 
39nm SE 
132153Z COR 05005KT 10SM FEW033 BKN065 BKN075 27/24 A3000 RMK AO2 RAE09 TSE08 SLP154 OCNL LTGICCG DSNT S CB DSNT S T2 SET P0001 T02670239 $
KBQK 
40nm NE 
132155Z AUTO 04010G17KT 10SM SCT026 SCT044 29/22 A3001 RMK AO2 T02880217
KNRB 
40nm SE 
132152Z AUTO 06010KT 10SM FEW018 SCT035 BKN090 27/24 A3000 RMK AO2 SLP157 T02720244 $
TAF
KJAX 
25nm SE 
131720Z 1318/1418 33006KT P6SM VCTS SCT015 BKN030CB BKN060 TEMPO 1318/1322 VRB25KT 1SM TSRA BR SCT015 BKN025CB BKN040 FM140100 VRB03KT P6SM SCT030 OVC100 FM140600 VRB03KT P6SM SCT025
NOTAMs
Click for the latest NOTAMs
NOTAMs are issued by the DoD/FAA and will open in a separate window not controlled by AirNav.

 

 
 

Would you like to see your business listed on this page?

 If your business provides an interesting product or service to pilots, flight crews, aircraft, or users of the Davis Field Airport, you should consider listing it here.  To start the listing process, click on the button below
 
Add a business
 

Other Pages about Davis Field Airport

Update a link
 
Copyright © AirNav, LLC. All rights reserved. Privacy Policy  Contact